Terminal Aerodrome Forecast
Issued by NWS

Home | Current Version | Previous Version | Text Only | Print | Product List | Glossary On
Versions: 1 2 3 4 5 6 7 8 9 10 11 12 13 14 15 16 17 18
000
FTUS41 KBOX 241509 AAA
TAFBAF
TAF AMD
KBAF 241509Z 2415/2512 32007KT P6SM OVC100
     FM241700 30013G20KT P6SM SCT060
     FM242300 30007KT P6SM SKC
     FM250700 00000KT P6SM FEW250=

USA.gov is the U.S. government's official web portal to all federal, state and local government web resources and services.